sensor_id;sensor_type;location;lat;lon;timestamp;pressure;altitude;pressure_sealevel;temperature;humidity
3524;BME280;1776;53.330;11.498;2023-07-20T00:01:34;25183.28;;;-147.39;71.40
3524;BME280;1776;53.330;11.498;2023-07-20T00:03:59;25144.66;;;-147.39;71.46
3524;BME280;1776;53.330;11.498;2023-07-20T00:06:25;25158.88;;;-147.39;71.61
3524;BME280;1776;53.330;11.498;2023-07-20T00:08:54;25134.47;;;-147.39;71.42
3524;BME280;1776;53.330;11.498;2023-07-20T00:11:20;25126.34;;;-147.39;71.36
3524;BME280;1776;53.330;11.498;2023-07-20T00:13:45;25152.78;;;-147.39;71.38
3524;BME280;1776;53.330;11.498;2023-07-20T00:16:10;25160.91;;;-147.39;71.20
3524;BME280;1776;53.330;11.498;2023-07-20T00:18:35;25132.44;;;-147.39;71.08
3524;BME280;1776;53.330;11.498;2023-07-20T00:21:01;25124.31;;;-147.39;70.95
3524;BME280;1776;53.330;11.498;2023-07-20T00:23:27;25156.84;;;-147.39;70.72
3524;BME280;1776;53.330;11.498;2023-07-20T00:25:52;25122.28;;;-147.39;70.84
3524;BME280;1776;53.330;11.498;2023-07-20T00:28:17;25110.06;;;-147.39;70.82
3524;BME280;1776;53.330;11.498;2023-07-20T00:30:43;25142.63;;;-147.39;70.90
3524;BME280;1776;53.330;11.498;2023-07-20T00:33:11;25167.03;;;-147.39;70.45
3524;BME280;1776;53.330;11.498;2023-07-20T00:35:38;25232.09;;;-147.39;70.78
3524;BME280;1776;53.330;11.498;2023-07-20T00:38:04;25112.09;;;-147.39;70.89
3524;BME280;1776;53.330;11.498;2023-07-20T00:40:36;25148.72;;;-147.39;70.81
3524;BME280;1776;53.330;11.498;2023-07-20T00:43:01;25091.78;;;-147.39;70.48
3524;BME280;1776;53.330;11.498;2023-07-20T00:45:27;25158.88;;;-147.39;70.52
3524;BME280;1776;53.330;11.498;2023-07-20T00:47:52;25110.06;;;-147.39;70.49
3524;BME280;1776;53.330;11.498;2023-07-20T00:50:18;25089.72;;;-147.39;70.70
3524;BME280;1776;53.330;11.498;2023-07-20T00:52:44;25016.53;;;-147.39;70.54
3524;BME280;1776;53.330;11.498;2023-07-20T00:55:10;25089.72;;;-147.39;70.58
3524;BME280;1776;53.330;11.498;2023-07-20T00:57:35;25053.13;;;-147.39;70.68
3524;BME280;1776;53.330;11.498;2023-07-20T01:00:01;25171.09;;;-147.39;70.41
3524;BME280;1776;53.330;11.498;2023-07-20T01:02:26;25169.06;;;-147.39;70.17
3524;BME280;1776;53.330;11.498;2023-07-20T01:04:52;25083.63;;;-147.39;69.93
3524;BME280;1776;53.330;11.498;2023-07-20T01:07:27;25110.06;;;-147.39;69.82
3524;BME280;1776;53.330;11.498;2023-07-20T01:10:20;25077.53;;;-147.39;69.88
3524;BME280;1776;53.330;11.498;2023-07-20T01:12:52;25136.50;;;-147.39;70.50
3524;BME280;1776;53.330;11.498;2023-07-20T01:15:18;25063.28;;;-147.39;70.59
3524;BME280;1776;53.330;11.498;2023-07-20T01:17:44;25034.81;;;-147.39;70.60
3524;BME280;1776;53.330;11.498;2023-07-20T01:20:12;25079.56;;;-147.39;70.55
3524;BME280;1776;53.330;11.498;2023-07-20T01:25:57;25065.31;;;-147.39;70.62
3524;BME280;1776;53.330;11.498;2023-07-20T01:33:38;25091.78;;;-147.39;70.53
3524;BME280;1776;53.330;11.498;2023-07-20T01:36:04;25026.69;;;-147.39;70.36
3524;BME280;1776;53.330;11.498;2023-07-20T01:38:30;25061.25;;;-147.39;70.49
3524;BME280;1776;53.330;11.498;2023-07-20T01:40:57;25075.50;;;-147.39;70.26
3524;BME280;1776;53.330;11.498;2023-07-20T01:43:22;25059.22;;;-147.39;70.35
3524;BME280;1776;53.330;11.498;2023-07-20T01:45:47;25063.28;;;-147.39;70.39
3524;BME280;1776;53.330;11.498;2023-07-20T01:48:13;25042.97;;;-147.39;70.48
3524;BME280;1776;53.330;11.498;2023-07-20T01:50:38;25028.72;;;-147.39;70.39
3524;BME280;1776;53.330;11.498;2023-07-20T01:53:03;25049.06;;;-147.39;70.38
3524;BME280;1776;53.330;11.498;2023-07-20T01:55:29;25073.47;;;-147.39;70.26
3524;BME280;1776;53.330;11.498;2023-07-20T01:57:55;25026.69;;;-147.39;70.68
3524;BME280;1776;53.330;11.498;2023-07-20T02:00:20;25012.44;;;-147.39;70.75
3524;BME280;1776;53.330;11.498;2023-07-20T02:02:49;25114.13;;;-147.39;70.60
3524;BME280;1776;53.330;11.498;2023-07-20T02:05:14;25014.47;;;-147.39;71.08
3524;BME280;1776;53.330;11.498;2023-07-20T02:07:40;25002.28;;;-147.39;71.46
3524;BME280;1776;53.330;11.498;2023-07-20T02:10:05;24988.03;;;-147.39;71.53
3524;BME280;1776;53.330;11.498;2023-07-20T02:12:31;24941.28;;;-147.39;72.37
3524;BME280;1776;53.330;11.498;2023-07-20T02:14:56;24880.25;;;-147.39;72.76
3524;BME280;1776;53.330;11.498;2023-07-20T02:17:21;24925.00;;;-147.39;73.77
3524;BME280;1776;53.330;11.498;2023-07-20T02:19:49;24884.31;;;-147.39;73.56
3524;BME280;1776;53.330;11.498;2023-07-20T02:22:15;24886.38;;;-147.39;73.78
3524;BME280;1776;53.330;11.498;2023-07-20T02:24:41;24894.50;;;-147.39;73.65
3524;BME280;1776;53.330;11.498;2023-07-20T02:27:07;24857.88;;;-147.39;73.58
3524;BME280;1776;53.330;11.498;2023-07-20T02:29:32;24876.19;;;-147.39;73.04
3524;BME280;1776;53.330;11.498;2023-07-20T02:31:57;24890.44;;;-147.39;73.27
3524;BME280;1776;53.330;11.498;2023-07-20T02:34:23;24898.56;;;-147.39;73.02
3524;BME280;1776;53.330;11.498;2023-07-20T02:36:48;24890.44;;;-147.39;72.73
3524;BME280;1776;53.330;11.498;2023-07-20T02:39:14;24900.59;;;-147.39;72.60
3524;BME280;1776;53.330;11.498;2023-07-20T02:41:39;24526.41;;;-147.39;72.26
3524;BME280;1776;53.330;11.498;2023-07-20T02:44:04;24861.97;;;-147.39;72.29
3524;BME280;1776;53.330;11.498;2023-07-20T02:46:29;24902.63;;;-147.39;72.43
3524;BME280;1776;53.330;11.498;2023-07-20T02:48:55;25004.31;;;-147.39;72.03
3524;BME280;1776;53.330;11.498;2023-07-20T02:51:20;24918.91;;;-147.39;71.95
3524;BME280;1776;53.330;11.498;2023-07-20T02:53:46;24916.88;;;-147.39;71.77
3524;BME280;1776;53.330;11.498;2023-07-20T02:56:11;24880.25;;;-147.39;71.52
3524;BME280;1776;53.330;11.498;2023-07-20T02:58:41;24929.06;;;-147.39;71.15
3524;BME280;1776;53.330;11.498;2023-07-20T03:01:08;24975.84;;;-147.39;70.93
3524;BME280;1776;53.330;11.498;2023-07-20T03:03:35;24961.59;;;-147.39;70.76
3524;BME280;1776;53.330;11.498;2023-07-20T03:06:06;24957.53;;;-147.39;70.63
3524;BME280;1776;53.330;11.498;2023-07-20T03:08:34;24971.78;;;-147.39;70.97
3524;BME280;1776;53.330;11.498;2023-07-20T03:11:00;25040.94;;;-147.39;71.06
3524;BME280;1776;53.330;11.498;2023-07-20T03:13:26;24965.69;;;-147.39;71.17
3524;BME280;1776;53.330;11.498;2023-07-20T03:15:52;24532.50;;;-147.39;71.61
3524;BME280;1776;53.330;11.498;2023-07-20T03:18:17;24959.56;;;-147.39;72.25
3524;BME280;1776;53.330;11.498;2023-07-20T03:20:43;24906.69;;;-147.39;72.14
3524;BME280;1776;53.330;11.498;2023-07-20T03:23:08;24912.81;;;-147.39;72.10
3524;BME280;1776;53.330;11.498;2023-07-20T03:25:33;24573.19;;;-147.39;71.90
3524;BME280;1776;53.330;11.498;2023-07-20T03:27:58;24927.03;;;-147.39;72.09
3524;BME280;1776;53.330;11.498;2023-07-20T03:30:24;24935.16;;;-147.39;71.98
3524;BME280;1776;53.330;11.498;2023-07-20T03:32:50;25069.41;;;-147.39;72.10
3524;BME280;1776;53.330;11.498;2023-07-20T03:35:16;24886.38;;;-147.39;72.05
3524;BME280;1776;53.330;11.498;2023-07-20T03:37:41;24937.19;;;-147.39;71.99
3524;BME280;1776;53.330;11.498;2023-07-20T03:40:07;24929.06;;;-147.39;72.07
3524;BME280;1776;53.330;11.498;2023-07-20T03:42:33;24916.88;;;-147.39;72.24
3524;BME280;1776;53.330;11.498;2023-07-20T03:44:58;24933.13;;;-147.39;72.20
3524;BME280;1776;53.330;11.498;2023-07-20T03:47:23;24880.25;;;-147.39;72.36
3524;BME280;1776;53.330;11.498;2023-07-20T03:49:49;24896.53;;;-147.39;72.55
3524;BME280;1776;53.330;11.498;2023-07-20T03:52:14;24866.03;;;-147.39;72.40
3524;BME280;1776;53.330;11.498;2023-07-20T03:54:39;24872.13;;;-147.39;72.45
3524;BME280;1776;53.330;11.498;2023-07-20T03:57:05;24892.47;;;-147.39;72.44
3524;BME280;1776;53.330;11.498;2023-07-20T03:59:30;24880.25;;;-147.39;72.29
3524;BME280;1776;53.330;11.498;2023-07-20T04:01:55;24872.13;;;-147.39;72.38
3524;BME280;1776;53.330;11.498;2023-07-20T04:04:21;24683.00;;;-147.39;72.49
3524;BME280;1776;53.330;11.498;2023-07-20T04:06:46;24890.44;;;-147.39;72.02
3524;BME280;1776;53.330;11.498;2023-07-20T04:09:12;24896.53;;;-147.39;72.58
3524;BME280;1776;53.330;11.498;2023-07-20T04:11:37;24894.50;;;-147.39;72.30
3524;BME280;1776;53.330;11.498;2023-07-20T04:14:03;24866.03;;;-147.39;72.79
3524;BME280;1776;53.330;11.498;2023-07-20T04:16:29;24973.81;;;-147.39;72.54
3524;BME280;1776;53.330;11.498;2023-07-20T04:18:55;24880.25;;;-147.39;72.98
3524;BME280;1776;53.330;11.498;2023-07-20T04:21:21;24847.72;;;-147.39;73.12
3524;BME280;1776;53.330;11.498;2023-07-20T04:23:46;24866.03;;;-147.39;73.44
3524;BME280;1776;53.330;11.498;2023-07-20T04:26:11;24829.41;;;-147.39;73.65
3524;BME280;1776;53.330;11.498;2023-07-20T04:28:38;24788.75;;;-147.39;73.85
3524;BME280;1776;53.330;11.498;2023-07-20T04:31:15;24896.53;;;-147.39;73.82
3524;BME280;1776;53.330;11.498;2023-07-20T04:33:41;24841.63;;;-147.39;73.91
3524;BME280;1776;53.330;11.498;2023-07-20T04:36:06;24809.09;;;-147.39;73.73
3524;BME280;1776;53.330;11.498;2023-07-20T04:38:32;24843.66;;;-147.39;73.59
3524;BME280;1776;53.330;11.498;2023-07-20T04:40:58;24845.69;;;-147.39;73.64
3524;BME280;1776;53.330;11.498;2023-07-20T04:43:23;24800.94;;;-147.39;73.80
3524;BME280;1776;53.330;11.498;2023-07-20T04:45:48;24796.88;;;-147.39;73.92
3524;BME280;1776;53.330;11.498;2023-07-20T04:48:16;24835.53;;;-147.39;74.09
3524;BME280;1776;53.330;11.498;2023-07-20T04:50:43;24768.41;;;-147.39;73.94
3524;BME280;1776;53.330;11.498;2023-07-20T04:53:10;24800.94;;;-147.39;74.32
3524;BME280;1776;53.330;11.498;2023-07-20T04:55:36;24762.31;;;-147.39;74.15
3524;BME280;1776;53.330;11.498;2023-07-20T04:58:02;24760.28;;;-147.39;74.41
3524;BME280;1776;53.330;11.498;2023-07-20T05:00:32;24796.88;;;-147.39;74.29
3524;BME280;1776;53.330;11.498;2023-07-20T05:02:57;24798.91;;;-147.39;74.24
3524;BME280;1776;53.330;11.498;2023-07-20T05:05:23;24774.50;;;-147.39;74.05
3524;BME280;1776;53.330;11.498;2023-07-20T05:07:48;24788.75;;;-147.39;74.03
3524;BME280;1776;53.330;11.498;2023-07-20T05:10:13;24766.38;;;-147.39;75.02
3524;BME280;1776;53.330;11.498;2023-07-20T05:12:39;24776.53;;;-147.39;75.12
3524;BME280;1776;53.330;11.498;2023-07-20T05:15:04;24733.84;;;-147.39;76.04
3524;BME280;1776;53.330;11.498;2023-07-20T05:17:29;24642.31;;;-147.39;75.75
3524;BME280;1776;53.330;11.498;2023-07-20T05:19:55;24459.31;;;-147.39;75.46
3524;BME280;1776;53.330;11.498;2023-07-20T05:22:20;24687.06;;;-147.39;75.14
3524;BME280;1776;53.330;11.498;2023-07-20T05:24:45;24713.50;;;-147.39;75.16
3524;BME280;1776;53.330;11.498;2023-07-20T05:27:11;24744.00;;;-147.39;74.88
3524;BME280;1776;53.330;11.498;2023-07-20T05:29:36;24829.41;;;-147.39;75.14
3524;BME280;1776;53.330;11.498;2023-07-20T05:32:01;24741.97;;;-147.39;75.10
3524;BME280;1776;53.330;11.498;2023-07-20T05:34:28;24733.84;;;-147.39;75.83
3524;BME280;1776;53.330;11.498;2023-07-20T05:36:53;24642.31;;;-147.39;76.07
3524;BME280;1776;53.330;11.498;2023-07-20T05:39:18;24650.47;;;-147.39;75.80
3524;BME280;1776;53.330;11.498;2023-07-20T05:41:43;24579.28;;;-147.39;76.61
3524;BME280;1776;53.330;11.498;2023-07-20T05:44:09;24575.22;;;-147.39;76.50
3524;BME280;1776;53.330;11.498;2023-07-20T05:46:34;24597.59;;;-147.39;76.73
3524;BME280;1776;53.330;11.498;2023-07-20T05:49:00;24556.91;;;-147.39;76.82
3524;BME280;1776;53.330;11.498;2023-07-20T05:51:25;24579.28;;;-147.39;76.87
3524;BME280;1776;53.330;11.498;2023-07-20T05:53:50;24508.13;;;-147.39;77.12
3524;BME280;1776;53.330;11.498;2023-07-20T05:56:15;24463.38;;;-147.39;77.44
3524;BME280;1776;53.330;11.498;2023-07-20T05:58:42;24447.13;;;-147.39;77.46
3524;BME280;1776;53.330;11.498;2023-07-20T06:01:07;24495.91;;;-147.39;77.49
3524;BME280;1776;53.330;11.498;2023-07-20T06:03:32;24463.38;;;-147.39;76.71
3524;BME280;1776;53.330;11.498;2023-07-20T06:06:01;24493.88;;;-147.39;76.61
3524;BME280;1776;53.330;11.498;2023-07-20T06:08:28;24270.22;;;-147.39;76.20
3524;BME280;1776;53.330;11.498;2023-07-20T06:10:53;24504.06;;;-147.39;76.38
3524;BME280;1776;53.330;11.498;2023-07-20T06:13:18;24485.75;;;-147.39;75.94
3524;BME280;1776;53.330;11.498;2023-07-20T06:15:44;24471.50;;;-147.39;76.13
3524;BME280;1776;53.330;11.498;2023-07-20T06:18:09;24461.34;;;-147.39;76.11
3524;BME280;1776;53.330;11.498;2023-07-20T06:20:34;24463.38;;;-147.39;76.81
3524;BME280;1776;53.330;11.498;2023-07-20T06:22:59;24524.38;;;-147.39;76.50
3524;BME280;1776;53.330;11.498;2023-07-20T06:25:25;24445.06;;;-147.39;76.45
3524;BME280;1776;53.330;11.498;2023-07-20T06:27:50;24438.97;;;-147.39;76.61
3524;BME280;1776;53.330;11.498;2023-07-20T06:30:19;24449.16;;;-147.39;75.88
3524;BME280;1776;53.330;11.498;2023-07-20T06:32:45;24481.69;;;-147.39;75.61
3524;BME280;1776;53.330;11.498;2023-07-20T06:35:10;24508.13;;;-147.39;75.11
3524;BME280;1776;53.330;11.498;2023-07-20T06:37:35;24520.31;;;-147.39;74.96
3524;BME280;1776;53.330;11.498;2023-07-20T06:40:04;24546.75;;;-147.39;74.68
3524;BME280;1776;53.330;11.498;2023-07-20T06:42:30;24583.34;;;-147.39;74.86
3524;BME280;1776;53.330;11.498;2023-07-20T06:44:57;24538.63;;;-147.39;74.78
3524;BME280;1776;53.330;11.498;2023-07-20T06:47:22;24603.69;;;-147.39;75.13
3524;BME280;1776;53.330;11.498;2023-07-20T06:49:47;24550.81;;;-147.39;74.53
3524;BME280;1776;53.330;11.498;2023-07-20T06:52:13;24469.47;;;-147.39;74.05
3524;BME280;1776;53.330;11.498;2023-07-20T06:54:38;24591.50;;;-147.39;73.94
3524;BME280;1776;53.330;11.498;2023-07-20T06:57:04;24683.00;;;-147.39;73.40
3524;BME280;1776;53.330;11.498;2023-07-20T06:59:30;24660.63;;;-147.39;72.96
3524;BME280;1776;53.330;11.498;2023-07-20T07:01:55;24634.19;;;-147.39;72.58
3524;BME280;1776;53.330;11.498;2023-07-20T07:04:21;24699.28;;;-147.39;72.15
3524;BME280;1776;53.330;11.498;2023-07-20T07:06:46;24689.09;;;-147.39;71.75
3524;BME280;1776;53.330;11.498;2023-07-20T07:09:11;24701.31;;;-147.39;71.69
3524;BME280;1776;53.330;11.498;2023-07-20T07:11:37;24758.25;;;-147.39;71.33
3524;BME280;1776;53.330;11.498;2023-07-20T07:14:02;24782.66;;;-147.39;71.10
3524;BME280;1776;53.330;11.498;2023-07-20T07:16:27;24790.78;;;-147.39;70.68
3524;BME280;1776;53.330;11.498;2023-07-20T07:18:53;24788.75;;;-147.39;70.97
3524;BME280;1776;53.330;11.498;2023-07-20T07:21:18;24776.53;;;-147.39;70.56
3524;BME280;1776;53.330;11.498;2023-07-20T07:23:43;24778.56;;;-147.39;70.54
3524;BME280;1776;53.330;11.498;2023-07-20T07:26:09;24782.66;;;-147.39;70.72
3524;BME280;1776;53.330;11.498;2023-07-20T07:28:35;24825.34;;;-147.39;70.62
3524;BME280;1776;53.330;11.498;2023-07-20T07:31:00;24583.34;;;-147.39;70.24
3524;BME280;1776;53.330;11.498;2023-07-20T07:33:25;24859.94;;;-147.39;70.33
3524;BME280;1776;53.330;11.498;2023-07-20T07:35:51;24843.66;;;-147.39;69.95
3524;BME280;1776;53.330;11.498;2023-07-20T07:38:17;24874.16;;;-147.39;69.84
3524;BME280;1776;53.330;11.498;2023-07-20T07:40:43;24829.41;;;-147.39;70.30
3524;BME280;1776;53.330;11.498;2023-07-20T07:43:08;24835.53;;;-147.39;70.46
3524;BME280;1776;53.330;11.498;2023-07-20T07:45:35;24857.88;;;-147.39;69.68
3524;BME280;1776;53.330;11.498;2023-07-20T07:48:04;24876.19;;;-147.39;70.33
3524;BME280;1776;53.330;11.498;2023-07-20T07:50:29;24876.19;;;-147.39;68.68
3524;BME280;1776;53.330;11.498;2023-07-20T07:52:55;24979.91;;;-147.39;69.21
3524;BME280;1776;53.330;11.498;2023-07-20T07:55:20;25061.25;;;-147.39;68.15
3524;BME280;1776;53.330;11.498;2023-07-20T07:57:45;24955.50;;;-147.39;67.48
3524;BME280;1776;53.330;11.498;2023-07-20T08:00:13;25020.59;;;-147.39;67.31
3524;BME280;1776;53.330;11.498;2023-07-20T08:02:41;25069.41;;;-147.39;66.86
3524;BME280;1776;53.330;11.498;2023-07-20T08:05:07;25199.56;;;-147.39;66.62
3524;BME280;1776;53.330;11.498;2023-07-20T08:07:32;25110.06;;;-147.39;65.42
3524;BME280;1776;53.330;11.498;2023-07-20T08:09:57;25236.16;;;-147.39;64.83
3524;BME280;1776;53.330;11.498;2023-07-20T08:12:23;25144.66;;;-147.39;64.54
3524;BME280;1776;53.330;11.498;2023-07-20T08:14:48;25047.03;;;-147.39;65.30
3524;BME280;1776;53.330;11.498;2023-07-20T08:17:14;25219.91;;;-147.39;65.82
3524;BME280;1776;53.330;11.498;2023-07-20T08:19:39;25146.69;;;-147.39;63.71
3524;BME280;1776;53.330;11.498;2023-07-20T08:22:06;25313.47;;;-147.39;63.98
3524;BME280;1776;53.330;11.498;2023-07-20T08:24:32;25219.91;;;-147.39;62.48
3524;BME280;1776;53.330;11.498;2023-07-20T08:26:58;25264.66;;;-147.39;62.04
3524;BME280;1776;53.330;11.498;2023-07-20T08:29:23;25346.00;;;-147.39;62.42
3524;BME280;1776;53.330;11.498;2023-07-20T08:31:49;25335.84;;;-147.39;61.29
3524;BME280;1776;53.330;11.498;2023-07-20T08:34:14;25382.59;;;-147.39;59.85
3524;BME280;1776;53.330;11.498;2023-07-20T08:36:40;25372.44;;;-147.39;60.56
3524;BME280;1776;53.330;11.498;2023-07-20T08:39:06;25195.50;;;-147.39;60.11
3524;BME280;1776;53.330;11.498;2023-07-20T08:41:34;25427.34;;;-147.39;59.61
3524;BME280;1776;53.330;11.498;2023-07-20T08:44:00;25362.28;;;-147.39;60.72
3524;BME280;1776;53.330;11.498;2023-07-20T08:46:27;25352.09;;;-147.39;61.84
3524;BME280;1776;53.330;11.498;2023-07-20T08:48:54;25354.13;;;-147.39;61.79
3524;BME280;1776;53.330;11.498;2023-07-20T08:51:21;25411.09;;;-147.39;61.87
3524;BME280;1776;53.330;11.498;2023-07-20T08:53:47;25374.47;;;-147.39;61.26
3524;BME280;1776;53.330;11.498;2023-07-20T08:56:13;25496.50;;;-147.39;60.28
3524;BME280;1776;53.330;11.498;2023-07-20T08:58:43;25563.63;;;-147.39;60.02
3524;BME280;1776;53.330;11.498;2023-07-20T09:01:10;25573.81;;;-147.39;59.87
3524;BME280;1776;53.330;11.498;2023-07-20T09:03:35;25649.06;;;-147.39;57.45
3524;BME280;1776;53.330;11.498;2023-07-20T09:06:04;25679.56;;;-147.39;56.82
3524;BME280;1776;53.330;11.498;2023-07-20T09:08:30;25732.47;;;-147.39;56.41
3524;BME280;1776;53.330;11.498;2023-07-20T09:10:55;25775.19;;;-147.39;55.48
3524;BME280;1776;53.330;11.498;2023-07-20T09:13:21;25762.97;;;-147.39;54.79
3524;BME280;1776;53.330;11.498;2023-07-20T09:15:47;25836.22;;;-147.39;52.65
3524;BME280;1776;53.330;11.498;2023-07-20T09:18:23;25885.03;;;-147.39;51.73
3524;BME280;1776;53.330;11.498;2023-07-20T09:20:49;25921.63;;;-147.39;52.54
3524;BME280;1776;53.330;11.498;2023-07-20T09:23:14;26000.97;;;-147.39;51.73
3524;BME280;1776;53.330;11.498;2023-07-20T09:25:40;25988.78;;;-147.39;51.31
3524;BME280;1776;53.330;11.498;2023-07-20T09:28:06;26007.06;;;-147.39;52.65
3524;BME280;1776;53.330;11.498;2023-07-20T09:30:31;26000.97;;;-147.39;52.65
3524;BME280;1776;53.330;11.498;2023-07-20T09:32:57;25913.50;;;-147.39;53.34
3524;BME280;1776;53.330;11.498;2023-07-20T09:35:22;26017.25;;;-147.39;53.53
3524;BME280;1776;53.330;11.498;2023-07-20T09:37:58;25990.81;;;-147.39;52.60
3524;BME280;1776;53.330;11.498;2023-07-20T09:40:25;26013.19;;;-147.39;51.97
3524;BME280;1776;53.330;11.498;2023-07-20T09:42:52;25976.56;;;-147.39;53.08
3524;BME280;1776;53.330;11.498;2023-07-20T09:45:19;25956.22;;;-147.39;52.97
3524;BME280;1776;53.330;11.498;2023-07-20T09:47:44;25988.78;;;-147.39;53.19
3524;BME280;1776;53.330;11.498;2023-07-20T09:50:09;25952.16;;;-147.39;53.43
3524;BME280;1776;53.330;11.498;2023-07-20T09:52:41;25948.09;;;-147.39;54.21
3524;BME280;1776;53.330;11.498;2023-07-20T09:55:10;25941.97;;;-147.39;53.36
3524;BME280;1776;53.330;11.498;2023-07-20T09:57:37;25950.13;;;-147.39;53.44
3524;BME280;1776;53.330;11.498;2023-07-20T10:00:07;26003.00;;;-147.39;52.32
3524;BME280;1776;53.330;11.498;2023-07-20T10:02:44;26070.16;;;-147.39;52.67
3524;BME280;1776;53.330;11.498;2023-07-20T10:05:14;26106.75;;;-147.39;51.85
3524;BME280;1776;53.330;11.498;2023-07-20T10:07:44;26118.97;;;-147.39;51.31
3524;BME280;1776;53.330;11.498;2023-07-20T10:10:14;26147.44;;;-147.39;49.36
3524;BME280;1776;53.330;11.498;2023-07-20T10:12:39;26277.66;;;-147.39;49.46
3524;BME280;1776;53.330;11.498;2023-07-20T10:15:13;26192.19;;;-147.39;49.63
3524;BME280;1776;53.330;11.498;2023-07-20T10:20:29;26249.16;;;-147.39;48.90
3524;BME280;1776;53.330;11.498;2023-07-20T10:22:55;26175.94;;;-147.39;49.89
3524;BME280;1776;53.330;11.498;2023-07-20T10:25:23;26214.59;;;-147.39;50.42
3524;BME280;1776;53.330;11.498;2023-07-20T10:27:49;26373.25;;;-147.39;49.97
3524;BME280;1776;53.330;11.498;2023-07-20T10:30:15;26216.63;;;-147.39;48.64
3524;BME280;1776;53.330;11.498;2023-07-20T10:32:41;26245.09;;;-147.39;50.01
3524;BME280;1776;53.330;11.498;2023-07-20T10:35:17;26159.66;;;-147.39;50.12
3524;BME280;1776;53.330;11.498;2023-07-20T10:37:54;26236.97;;;-147.39;48.94
3524;BME280;1776;53.330;11.498;2023-07-20T10:40:33;26342.75;;;-147.39;47.41
3524;BME280;1776;53.330;11.498;2023-07-20T10:43:06;26318.34;;;-147.39;48.81
3524;BME280;1776;53.330;11.498;2023-07-20T10:45:49;26367.16;;;-147.39;47.02
3524;BME280;1776;53.330;11.498;2023-07-20T10:48:15;26391.56;;;-147.39;47.47
3524;BME280;1776;53.330;11.498;2023-07-20T10:50:42;26007.06;;;-147.39;47.81
3524;BME280;1776;53.330;11.498;2023-07-20T10:53:18;26214.59;;;-147.39;46.62
3524;BME280;1776;53.330;11.498;2023-07-20T10:55:44;26690.66;;;-147.39;45.17
3524;BME280;1776;53.330;11.498;2023-07-20T10:58:13;26702.84;;;-147.39;44.44
3524;BME280;1776;53.330;11.498;2023-07-20T11:01:18;26617.41;;;-147.39;43.78
3524;BME280;1776;53.330;11.498;2023-07-20T11:03:49;26684.53;;;-147.39;43.90
3524;BME280;1776;53.330;11.498;2023-07-20T11:08:55;26739.47;;;-147.39;43.08
3524;BME280;1776;53.330;11.498;2023-07-20T11:11:24;26786.28;;;-147.39;43.36
3524;BME280;1776;53.330;11.498;2023-07-20T11:14:10;26774.06;;;-147.39;42.62
3524;BME280;1776;53.330;11.498;2023-07-20T11:16:45;26344.78;;;-147.39;43.18
3524;BME280;1776;53.330;11.498;2023-07-20T11:19:25;26696.75;;;-147.39;43.50
3524;BME280;1776;53.330;11.498;2023-07-20T11:21:52;26702.84;;;-147.39;43.56
3524;BME280;1776;53.330;11.498;2023-07-20T11:24:18;26723.22;;;-147.39;44.30
3524;BME280;1776;53.330;11.498;2023-07-20T11:26:53;26733.38;;;-147.39;43.16
3524;BME280;1776;53.330;11.498;2023-07-20T11:29:21;26894.13;;;-147.39;43.51
3524;BME280;1776;53.330;11.498;2023-07-20T11:31:47;26898.19;;;-147.39;43.08
3524;BME280;1776;53.330;11.498;2023-07-20T11:34:18;26883.94;;;-147.39;42.71
3524;BME280;1776;53.330;11.498;2023-07-20T11:36:46;26733.38;;;-147.39;43.21
3524;BME280;1776;53.330;11.498;2023-07-20T11:39:18;26778.13;;;-147.39;43.01
3524;BME280;1776;53.330;11.498;2023-07-20T11:41:54;26851.38;;;-147.39;43.45
3524;BME280;1776;53.330;11.498;2023-07-20T11:44:22;26802.56;;;-147.39;42.05
3524;BME280;1776;53.330;11.498;2023-07-20T11:46:53;26776.09;;;-147.39;41.26
3524;BME280;1776;53.330;11.498;2023-07-20T11:49:24;26802.56;;;-147.39;41.00
3524;BME280;1776;53.330;11.498;2023-07-20T11:51:50;26788.31;;;-147.39;41.34
3524;BME280;1776;53.330;11.498;2023-07-20T11:54:15;26820.88;;;-147.39;39.96
3524;BME280;1776;53.330;11.498;2023-07-20T11:56:41;26851.38;;;-147.39;39.34
3524;BME280;1776;53.330;11.498;2023-07-20T11:59:09;26924.63;;;-147.39;39.31
3524;BME280;1776;53.330;11.498;2023-07-20T12:01:34;26985.69;;;-147.39;40.22
3524;BME280;1776;53.330;11.498;2023-07-20T12:04:01;26932.78;;;-147.39;40.64
3524;BME280;1776;53.330;11.498;2023-07-20T12:06:28;26890.06;;;-147.39;40.47
3524;BME280;1776;53.330;11.498;2023-07-20T12:08:57;26824.94;;;-147.39;41.83
3524;BME280;1776;53.330;11.498;2023-07-20T12:11:37;26847.31;;;-147.39;42.04
3524;BME280;1776;53.330;11.498;2023-07-20T12:14:03;26802.56;;;-147.39;43.31
3524;BME280;1776;53.330;11.498;2023-07-20T12:16:30;26763.91;;;-147.39;44.36
3524;BME280;1776;53.330;11.498;2023-07-20T12:21:28;26861.56;;;-147.39;44.03
3524;BME280;1776;53.330;11.498;2023-07-20T12:23:56;26908.38;;;-147.39;41.83
3524;BME280;1776;53.330;11.498;2023-07-20T12:26:22;26949.06;;;-147.39;41.52
3524;BME280;1776;53.330;11.498;2023-07-20T12:28:49;27048.75;;;-147.39;41.08
3524;BME280;1776;53.330;11.498;2023-07-20T12:31:14;26938.88;;;-147.39;40.50
3524;BME280;1776;53.330;11.498;2023-07-20T12:33:39;27008.06;;;-147.39;40.63
3524;BME280;1776;53.330;11.498;2023-07-20T12:36:05;27075.22;;;-147.39;40.73
3524;BME280;1776;53.330;11.498;2023-07-20T12:38:30;27130.16;;;-147.39;40.16
3524;BME280;1776;53.330;11.498;2023-07-20T12:40:56;27132.19;;;-147.39;40.05
3524;BME280;1776;53.330;11.498;2023-07-20T12:43:22;27122.00;;;-147.39;39.59
3524;BME280;1776;53.330;11.498;2023-07-20T12:45:47;27028.41;;;-147.39;40.16
3524;BME280;1776;53.330;11.498;2023-07-20T12:48:12;26940.91;;;-147.39;41.21
3524;BME280;1776;53.330;11.498;2023-07-20T12:50:38;26918.53;;;-147.39;41.77
3524;BME280;1776;53.330;11.498;2023-07-20T12:53:03;26855.47;;;-147.39;43.01
3524;BME280;1776;53.330;11.498;2023-07-20T12:55:29;26890.06;;;-147.39;46.06
3524;BME280;1776;53.330;11.498;2023-07-20T12:57:54;26739.47;;;-147.39;47.64
3524;BME280;1776;53.330;11.498;2023-07-20T13:00:41;26708.97;;;-147.39;48.64
3524;BME280;1776;53.330;11.498;2023-07-20T13:03:07;26733.38;;;-147.39;49.36
3524;BME280;1776;53.330;11.498;2023-07-20T13:05:34;26633.69;;;-147.39;49.78